Time;durP1;ratioP1;P1;durP2;ratioP2;P2;SDS_P1;SDS_P2;PMS_P1;PMS_P2;Temp;Humidity;BMP_temperature;BMP_pressure;BME280_temperature;BME280_humidity;BME280_pressure;Samples;Min_cycle;Max_cycle;Signal;HPM_P1;HPM_P2
2021/12/04 00:01:53;;;;;;;55.30;20.95;;;;;;;;;;5104787;28;20046;-76
2021/12/04 00:04:44;;;;;;;58.00;22.48;;;;;;;;;;5100349;28;20051;-76
2021/12/04 00:07:07;;;;;;;59.35;21.58;;;;;;;;;;5105384;28;20584;-82
2021/12/04 00:09:34;;;;;;;64.00;22.67;;;;;;;;;;5109584;28;20043;-81
2021/12/04 00:12:02;;;;;;;55.15;21.45;;;;;;;;;;5110022;28;20127;-80
2021/12/04 00:14:29;;;;;;;58.80;21.75;;;;;;;;;;5108820;28;20055;-81
2021/12/04 00:16:55;;;;;;;57.35;20.88;;;;;;;;;;5075002;28;20039;-76
2021/12/04 00:19:22;;;;;;;58.97;21.10;;;;;;;;;;5102503;28;20395;-74
2021/12/04 00:21:48;;;;;;;59.63;21.25;;;;;;;;;;5100596;28;20062;-75
2021/12/04 00:24:14;;;;;;;64.05;22.05;;;;;;;;;;5108642;28;20479;-75
2021/12/04 00:26:40;;;;;;;62.25;22.27;;;;;;;;;;5098857;28;20506;-80
2021/12/04 00:29:07;;;;;;;63.50;20.85;;;;;;;;;;5070584;28;20059;-76
2021/12/04 00:31:33;;;;;;;68.40;21.95;;;;;;;;;;5108664;28;20043;-75
2021/12/04 00:33:59;;;;;;;66.93;21.77;;;;;;;;;;5109109;28;20047;-76
2021/12/04 00:36:37;;;;;;;67.72;23.15;;;;;;;;;;5091926;28;20043;-81
2021/12/04 00:50:05;;;;;;;77.07;21.75;;;;;;;;;;5095987;28;20494;-77
2021/12/04 00:52:31;;;;;;;73.78;22.10;;;;;;;;;;5108712;28;20479;-76
2021/12/04 00:54:57;;;;;;;78.75;23.77;;;;;;;;;;5109425;28;20473;-81
2021/12/04 00:57:23;;;;;;;71.85;22.75;;;;;;;;;;5109422;28;20122;-81
2021/12/04 00:59:49;;;;;;;70.60;22.40;;;;;;;;;;5092091;28;20057;-81
2021/12/04 01:02:18;;;;;;;69.72;21.85;;;;;;;;;;5111658;28;20108;-81
2021/12/04 01:04:45;;;;;;;70.90;22.15;;;;;;;;;;5092872;28;20062;-81
2021/12/04 01:07:11;;;;;;;66.85;21.85;;;;;;;;;;5108476;28;20039;-81
2021/12/04 01:09:37;;;;;;;70.45;22.25;;;;;;;;;;5108677;28;20039;-81
2021/12/04 01:12:04;;;;;;;65.68;21.45;;;;;;;;;;5110297;28;20444;-81
2021/12/04 01:14:32;;;;;;;68.75;20.83;;;;;;;;;;5125336;27;20082;-80
2021/12/04 01:16:58;;;;;;;63.95;20.48;;;;;;;;;;5107790;28;20054;-81
2021/12/04 01:19:25;;;;;;;67.47;21.55;;;;;;;;;;5108148;28;20388;-81
2021/12/04 01:21:53;;;;;;;53.63;18.63;;;;;;;;;;5107544;28;20094;-81
2021/12/04 01:24:19;;;;;;;62.28;20.13;;;;;;;;;;5107759;28;20117;-81
2021/12/04 01:26:46;;;;;;;56.72;19.63;;;;;;;;;;5107485;28;20096;-80
2021/12/04 01:29:12;;;;;;;51.22;20.30;;;;;;;;;;5111040;28;20061;-81
2021/12/04 01:31:38;;;;;;;51.60;18.85;;;;;;;;;;5091129;28;20092;-81
2021/12/04 01:34:04;;;;;;;46.95;18.83;;;;;;;;;;5107079;28;20518;-80
2021/12/04 01:36:31;;;;;;;42.83;16.73;;;;;;;;;;5078270;28;20047;-81
2021/12/04 01:38:57;;;;;;;40.15;17.75;;;;;;;;;;5093350;28;20501;-81
2021/12/04 01:41:23;;;;;;;41.95;16.48;;;;;;;;;;5112570;28;20063;-81
2021/12/04 01:43:49;;;;;;;37.55;16.83;;;;;;;;;;5111634;28;20144;-76
2021/12/04 01:46:15;;;;;;;35.10;15.65;;;;;;;;;;5111342;28;20088;-76
2021/12/04 01:48:41;;;;;;;37.20;16.10;;;;;;;;;;5101756;28;20400;-76
2021/12/04 01:51:07;;;;;;;32.58;15.32;;;;;;;;;;5107110;28;20546;-75
2021/12/04 01:53:34;;;;;;;38.45;15.15;;;;;;;;;;5111504;28;20114;-76
2021/12/04 01:56:00;;;;;;;32.67;15.13;;;;;;;;;;5098293;28;20533;-76
2021/12/04 01:58:27;;;;;;;33.58;13.38;;;;;;;;;;5111214;28;20066;-76
2021/12/04 02:00:53;;;;;;;30.50;14.85;;;;;;;;;;5110904;28;20044;-81
2021/12/04 02:03:19;;;;;;;28.83;13.35;;;;;;;;;;5103354;28;20114;-81
2021/12/04 02:05:46;;;;;;;31.90;14.18;;;;;;;;;;5096475;28;20109;-77
2021/12/04 02:08:14;;;;;;;31.33;14.23;;;;;;;;;;5096693;28;20039;-76
2021/12/04 02:10:40;;;;;;;31.42;13.77;;;;;;;;;;5111027;28;20067;-76
2021/12/04 02:13:06;;;;;;;31.90;14.00;;;;;;;;;;5094729;28;20440;-81
2021/12/04 02:15:33;;;;;;;28.58;12.93;;;;;;;;;;5110904;28;20112;-81
2021/12/04 02:18:02;;;;;;;29.02;13.45;;;;;;;;;;5111200;28;20548;-76
2021/12/04 02:20:29;;;;;;;31.73;13.52;;;;;;;;;;5111001;28;20490;-81
2021/12/04 02:22:56;;;;;;;30.70;13.25;;;;;;;;;;5073893;28;20036;-76
2021/12/04 02:25:22;;;;;;;30.73;13.05;;;;;;;;;;5102713;28;20047;-76
2021/12/04 02:27:48;;;;;;;33.25;14.82;;;;;;;;;;5093224;28;20032;-76
2021/12/04 02:30:19;;;;;;;32.03;13.68;;;;;;;;;;5110584;28;20475;-76
2021/12/04 02:32:45;;;;;;;33.45;14.02;;;;;;;;;;5093008;28;20039;-76
2021/12/04 02:35:12;;;;;;;32.65;14.38;;;;;;;;;;5110969;28;20099;-77
2021/12/04 02:37:39;;;;;;;34.92;13.88;;;;;;;;;;5092897;28;20075;-76
2021/12/04 02:40:07;;;;;;;39.05;15.00;;;;;;;;;;5110540;28;20071;-76
2021/12/04 02:42:33;;;;;;;35.13;13.52;;;;;;;;;;5093400;28;20039;-76
2021/12/04 02:45:00;;;;;;;37.03;14.70;;;;;;;;;;5088197;28;20483;-76
2021/12/04 02:47:26;;;;;;;33.25;13.93;;;;;;;;;;5101289;28;20088;-76
2021/12/04 02:49:53;;;;;;;36.72;14.48;;;;;;;;;;5108665;28;20035;-75
2021/12/04 02:52:19;;;;;;;33.85;13.23;;;;;;;;;;5110775;28;20031;-76
2021/12/04 02:54:46;;;;;;;37.00;13.98;;;;;;;;;;5109382;28;20123;-77
2021/12/04 02:57:12;;;;;;;35.85;13.07;;;;;;;;;;5110093;28;20218;-76
2021/12/04 02:59:39;;;;;;;33.33;14.02;;;;;;;;;;5109713;28;20040;-76
2021/12/04 03:02:18;;;;;;;34.17;14.15;;;;;;;;;;5094954;28;20039;-76
2021/12/04 03:04:45;;;;;;;34.10;13.27;;;;;;;;;;5091226;28;20119;-76
2021/12/04 03:07:11;;;;;;;37.70;13.30;;;;;;;;;;5088558;28;20040;-75
2021/12/04 03:09:37;;;;;;;40.03;14.45;;;;;;;;;;5073226;28;20047;-81
2021/12/04 03:12:04;;;;;;;41.33;13.02;;;;;;;;;;5089954;28;20032;-81
2021/12/04 03:14:31;;;;;;;38.88;13.77;;;;;;;;;;5098927;28;20044;-81
2021/12/04 03:16:58;;;;;;;40.95;13.70;;;;;;;;;;5109910;28;20123;-81
2021/12/04 03:19:25;;;;;;;37.85;13.55;;;;;;;;;;5110308;28;20043;-80
2021/12/04 03:21:51;;;;;;;35.83;13.40;;;;;;;;;;5092793;28;20043;-80
2021/12/04 03:24:18;;;;;;;40.60;13.43;;;;;;;;;;5076290;28;20050;-81
2021/12/04 03:26:46;;;;;;;37.13;13.43;;;;;;;;;;5110284;28;20047;-81
2021/12/04 03:29:17;;;;;;;40.13;14.10;;;;;;;;;;5092558;28;20032;-77
2021/12/04 03:42:29;;;;;;;44.28;13.90;;;;;;;;;;5105315;28;20047;-81
2021/12/04 03:44:55;;;;;;;47.53;14.07;;;;;;;;;;5075382;28;20502;-80
2021/12/04 03:47:22;;;;;;;42.78;14.02;;;;;;;;;;5109682;28;20497;-81
2021/12/04 03:49:48;;;;;;;38.90;13.32;;;;;;;;;;5108803;28;20078;-81
2021/12/04 03:52:15;;;;;;;37.03;12.77;;;;;;;;;;5110772;28;20039;-81
2021/12/04 03:54:41;;;;;;;41.65;13.63;;;;;;;;;;5109381;28;20039;-76
2021/12/04 03:57:07;;;;;;;40.22;13.88;;;;;;;;;;5110146;28;20143;-76
2021/12/04 03:59:35;;;;;;;38.22;12.95;;;;;;;;;;5109079;28;20046;-77
2021/12/04 04:02:02;;;;;;;37.70;12.90;;;;;;;;;;5110092;28;20031;-77
2021/12/04 04:04:28;;;;;;;45.63;13.18;;;;;;;;;;5108795;28;20046;-76
2021/12/04 04:06:54;;;;;;;35.45;12.77;;;;;;;;;;5109350;28;20548;-77
2021/12/04 04:09:20;;;;;;;32.20;11.82;;;;;;;;;;5109318;28;20123;-76
2021/12/04 04:11:47;;;;;;;34.58;12.75;;;;;;;;;;5108154;28;20040;-77
2021/12/04 04:14:14;;;;;;;37.10;12.80;;;;;;;;;;5108979;28;20133;-77
2021/12/04 04:16:41;;;;;;;34.17;12.30;;;;;;;;;;5108568;28;20115;-76
2021/12/04 04:19:07;;;;;;;31.75;11.70;;;;;;;;;;5108672;28;20047;-81
2021/12/04 04:21:41;;;;;;;34.70;11.98;;;;;;;;;;5108827;28;20051;-76
2021/12/04 04:24:12;;;;;;;38.17;12.48;;;;;;;;;;5109006;28;20044;-81
2021/12/04 04:26:38;;;;;;;32.30;13.13;;;;;;;;;;5109106;28;20479;-81
2021/12/04 04:29:05;;;;;;;38.50;13.27;;;;;;;;;;5109317;28;20188;-81
2021/12/04 04:31:32;;;;;;;32.13;11.38;;;;;;;;;;5109712;28;20070;-77
2021/12/04 04:34:02;;;;;;;31.10;12.30;;;;;;;;;;5108103;28;20035;-77
2021/12/04 05:14:34;;;;;;;35.92;12.40;;;;;;;;;;5111224;28;20514;-80
2021/12/04 05:17:14;;;;;;;38.40;12.07;;;;;;;;;;5094404;28;20090;-81
2021/12/04 05:22:08;;;;;;;39.50;12.68;;;;;;;;;;5112190;28;20096;-76
2021/12/04 05:24:34;;;;;;;42.80;12.18;;;;;;;;;;5112052;28;20044;-81
2021/12/04 05:27:01;;;;;;;40.20;12.73;;;;;;;;;;5094423;28;20039;-81
2021/12/04 05:29:27;;;;;;;48.38;13.38;;;;;;;;;;5094888;28;20043;-81
2021/12/04 05:31:53;;;;;;;45.78;13.07;;;;;;;;;;5094236;28;20053;-80
2021/12/04 05:34:19;;;;;;;49.50;13.50;;;;;;;;;;5111830;28;20104;-81
2021/12/04 05:36:46;;;;;;;38.97;12.25;;;;;;;;;;5112387;28;20048;-81
2021/12/04 05:39:12;;;;;;;43.00;12.88;;;;;;;;;;5112529;28;20047;-76
2021/12/04 05:41:38;;;;;;;52.92;13.45;;;;;;;;;;5111565;28;20040;-77
2021/12/04 05:44:05;;;;;;;50.25;13.25;;;;;;;;;;5111660;28;20498;-77
2021/12/04 05:46:59;;;;;;;45.17;12.68;;;;;;;;;;5111650;28;20036;-76
2021/12/04 05:56:59;;;;;;;64.30;14.45;;;;;;;;;;5111333;28;20097;-81
2021/12/04 05:59:25;;;;;;;54.42;13.10;;;;;;;;;;5095994;28;20050;-80
2021/12/04 06:01:51;;;;;;;57.38;13.55;;;;;;;;;;5112588;28;20063;-81
2021/12/04 06:04:18;;;;;;;67.05;13.77;;;;;;;;;;5098743;28;20043;-76
2021/12/04 06:06:44;;;;;;;54.25;13.07;;;;;;;;;;5111287;28;20490;-76
2021/12/04 06:09:10;;;;;;;56.67;14.23;;;;;;;;;;5112251;28;20580;-76
2021/12/04 06:11:36;;;;;;;63.88;14.57;;;;;;;;;;5080455;28;20483;-76
2021/12/04 06:14:04;;;;;;;58.92;13.73;;;;;;;;;;5109758;28;20043;-76
2021/12/04 06:16:30;;;;;;;67.53;13.60;;;;;;;;;;5111613;28;20036;-76
2021/12/04 06:18:58;;;;;;;68.95;14.65;;;;;;;;;;5093789;28;20043;-76
2021/12/04 06:24:10;;;;;;;71.30;14.73;;;;;;;;;;5107083;28;20048;-81
2021/12/04 06:26:37;;;;;;;80.03;14.30;;;;;;;;;;5103781;28;20063;-76
2021/12/04 06:29:03;;;;;;;69.93;14.73;;;;;;;;;;5110597;28;20043;-76
2021/12/04 06:31:31;;;;;;;77.68;14.85;;;;;;;;;;5111473;28;20607;-77
2021/12/04 06:33:57;;;;;;;82.03;15.30;;;;;;;;;;5110597;28;20047;-75
2021/12/04 06:36:25;;;;;;;78.22;14.80;;;;;;;;;;5110899;28;20039;-76
2021/12/04 06:38:51;;;;;;;75.82;14.18;;;;;;;;;;5110826;28;20112;-76
2021/12/04 06:41:17;;;;;;;63.28;13.75;;;;;;;;;;5113526;27;20036;-80
2021/12/04 06:43:54;;;;;;;91.25;15.95;;;;;;;;;;5110840;28;20077;-80
2021/12/04 06:46:22;;;;;;;104.95;15.85;;;;;;;;;;5110799;28;20036;-77
2021/12/04 06:51:27;;;;;;;109.43;16.13;;;;;;;;;;5110420;28;20039;-80
2021/12/04 06:56:49;;;;;;;92.80;15.88;;;;;;;;;;5080144;28;20040;-77
2021/12/04 06:59:20;;;;;;;104.53;16.13;;;;;;;;;;5093381;28;20461;-77
2021/12/04 07:01:46;;;;;;;104.38;15.93;;;;;;;;;;5109872;28;20080;-76
2021/12/04 07:04:16;;;;;;;103.72;15.48;;;;;;;;;;5092913;28;20154;-77
2021/12/04 07:06:42;;;;;;;118.82;16.60;;;;;;;;;;5093179;28;20031;-76
2021/12/04 07:09:08;;;;;;;143.45;15.68;;;;;;;;;;5109797;28;20085;-76
2021/12/04 07:11:35;;;;;;;107.35;15.48;;;;;;;;;;5093120;28;20035;-76
2021/12/04 07:14:01;;;;;;;107.38;16.38;;;;;;;;;;5126591;27;20084;-76
2021/12/04 07:16:27;;;;;;;103.97;16.23;;;;;;;;;;5109966;28;20080;-75
2021/12/04 07:18:53;;;;;;;106.07;15.18;;;;;;;;;;5110859;28;20036;-76
2021/12/04 07:21:19;;;;;;;110.65;15.57;;;;;;;;;;5111097;28;20040;-76
2021/12/04 07:23:46;;;;;;;119.70;16.88;;;;;;;;;;5109565;28;20079;-76
2021/12/04 07:26:12;;;;;;;87.40;15.35;;;;;;;;;;5110338;28;20436;-81
2021/12/04 07:28:38;;;;;;;113.13;16.27;;;;;;;;;;5110706;28;20118;-80
2021/12/04 07:31:04;;;;;;;98.97;16.92;;;;;;;;;;5104659;28;20040;-81
2021/12/04 07:33:30;;;;;;;103.75;17.70;;;;;;;;;;5085150;28;20039;-81
2021/12/04 07:36:00;;;;;;;113.85;17.40;;;;;;;;;;5109349;28;20088;-80
2021/12/04 07:38:26;;;;;;;109.13;16.52;;;;;;;;;;5127685;27;20050;-81
2021/12/04 07:40:52;;;;;;;89.20;16.67;;;;;;;;;;5093258;28;20039;-80
2021/12/04 07:43:19;;;;;;;95.22;17.33;;;;;;;;;;5109449;28;20047;-77
2021/12/04 07:45:45;;;;;;;130.43;20.42;;;;;;;;;;5108633;28;20044;-77
2021/12/04 07:48:11;;;;;;;107.70;17.10;;;;;;;;;;5109746;28;20032;-76
2021/12/04 07:50:38;;;;;;;97.25;17.08;;;;;;;;;;5109524;28;20036;-77
2021/12/04 07:53:04;;;;;;;82.05;14.60;;;;;;;;;;5108769;28;20070;-76
2021/12/04 07:55:31;;;;;;;116.82;18.00;;;;;;;;;;5110003;28;20058;-81
2021/12/04 07:57:57;;;;;;;102.78;17.85;;;;;;;;;;5076090;28;20750;-77
2021/12/04 08:00:23;;;;;;;140.25;20.25;;;;;;;;;;5092161;28;20051;-81
2021/12/04 08:02:49;;;;;;;124.43;18.55;;;;;;;;;;5109049;28;20047;-81
2021/12/04 08:05:16;;;;;;;119.28;16.95;;;;;;;;;;5091856;28;20042;-81
2021/12/04 08:07:43;;;;;;;111.60;18.30;;;;;;;;;;5126137;27;20378;-82
2021/12/04 08:10:10;;;;;;;115.97;18.48;;;;;;;;;;5094157;28;20039;-81
2021/12/04 08:12:37;;;;;;;143.18;18.23;;;;;;;;;;5092413;28;20035;-81
2021/12/04 08:15:07;;;;;;;121.75;18.13;;;;;;;;;;5091759;28;20485;-81
2021/12/04 08:17:33;;;;;;;104.75;18.60;;;;;;;;;;5078703;28;20104;-81
2021/12/04 08:19:59;;;;;;;136.68;18.10;;;;;;;;;;5109585;28;20076;-81
2021/12/04 08:22:26;;;;;;;139.23;19.02;;;;;;;;;;5092816;28;20039;-77
2021/12/04 08:24:52;;;;;;;155.25;20.35;;;;;;;;;;5108431;28;20490;-77
2021/12/04 08:27:18;;;;;;;143.35;19.77;;;;;;;;;;5091783;28;20126;-77
2021/12/04 08:29:44;;;;;;;133.25;19.45;;;;;;;;;;5108454;28;20069;-77
2021/12/04 08:32:11;;;;;;;134.32;19.70;;;;;;;;;;5108678;28;20044;-76
2021/12/04 08:34:37;;;;;;;127.38;17.85;;;;;;;;;;5102016;28;20441;-77
2021/12/04 08:37:04;;;;;;;128.60;18.90;;;;;;;;;;5101191;28;20055;-81
2021/12/04 08:39:30;;;;;;;127.35;19.52;;;;;;;;;;5091280;28;20475;-81
2021/12/04 08:41:56;;;;;;;144.23;19.35;;;;;;;;;;5108120;28;20032;-77
2021/12/04 08:44:23;;;;;;;103.28;16.98;;;;;;;;;;5107841;28;20049;-81
2021/12/04 08:46:49;;;;;;;128.85;18.92;;;;;;;;;;5108311;28;20040;-81
2021/12/04 08:49:15;;;;;;;102.05;16.25;;;;;;;;;;5110726;28;20051;-83
2021/12/04 08:51:42;;;;;;;97.63;17.33;;;;;;;;;;5112886;28;20044;-77
2021/12/04 08:54:09;;;;;;;97.20;17.60;;;;;;;;;;5112471;28;20104;-77
2021/12/04 08:56:35;;;;;;;116.97;18.00;;;;;;;;;;5112863;28;20506;-76
2021/12/04 08:59:01;;;;;;;100.50;16.88;;;;;;;;;;5095226;28;20479;-76
2021/12/04 09:01:30;;;;;;;92.35;16.95;;;;;;;;;;5112470;28;20036;-77
2021/12/04 09:04:01;;;;;;;94.88;17.33;;;;;;;;;;5111994;28;20054;-77
2021/12/04 09:06:27;;;;;;;99.90;17.42;;;;;;;;;;5111925;28;20039;-81
2021/12/04 09:08:54;;;;;;;111.07;19.25;;;;;;;;;;5112823;28;20036;-81
2021/12/04 09:11:23;;;;;;;111.43;19.15;;;;;;;;;;5100635;28;20051;-81
2021/12/04 09:13:49;;;;;;;101.75;17.60;;;;;;;;;;5092176;28;20039;-76
2021/12/04 09:16:16;;;;;;;97.10;17.10;;;;;;;;;;5111935;28;20058;-77
2021/12/04 09:18:42;;;;;;;98.05;17.88;;;;;;;;;;5114900;27;20051;-77
2021/12/04 09:21:10;;;;;;;106.68;18.58;;;;;;;;;;5095166;28;20045;-76
2021/12/04 09:23:39;;;;;;;108.15;18.20;;;;;;;;;;5129364;27;20046;-77
2021/12/04 09:26:11;;;;;;;107.93;17.90;;;;;;;;;;5111433;28;20044;-77
2021/12/04 09:29:01;;;;;;;98.05;17.95;;;;;;;;;;5116474;27;20048;-77
2021/12/04 09:31:39;;;;;;;92.35;18.05;;;;;;;;;;5125746;27;20048;-76
2021/12/04 09:40:13;;;;;;;90.40;18.27;;;;;;;;;;5060453;28;20488;-77
2021/12/04 10:04:53;;;;;;;69.22;16.45;;;;;;;;;;5111416;28;20081;-77
2021/12/04 10:34:50;;;;;;;42.55;11.60;;;;;;;;;;5098663;28;20039;-76
2021/12/04 10:37:21;;;;;;;58.28;15.27;;;;;;;;;;5110779;28;20338;-76
2021/12/04 10:39:47;;;;;;;56.67;15.02;;;;;;;;;;5110964;28;20044;-76
2021/12/04 10:42:17;;;;;;;53.08;15.23;;;;;;;;;;5094232;28;20040;-76
2021/12/04 10:44:50;;;;;;;65.43;15.70;;;;;;;;;;5110250;28;20043;-77
2021/12/04 10:47:22;;;;;;;61.10;15.98;;;;;;;;;;5098039;28;20475;-76
2021/12/04 10:52:28;;;;;;;62.22;16.73;;;;;;;;;;5094310;28;20421;-77
2021/12/04 10:55:31;;;;;;;59.28;15.93;;;;;;;;;;5104268;28;20044;-77
2021/12/04 11:23:38;;;;;;;55.88;17.75;;;;;;;;;;5021427;28;20041;-81
2021/12/04 11:26:17;;;;;;;61.47;16.48;;;;;;;;;;5089181;28;20051;-81
2021/12/04 11:37:02;;;;;;;59.97;16.35;;;;;;;;;;5110222;28;20039;-76
2021/12/04 11:42:27;;;;;;;56.00;17.48;;;;;;;;;;5109481;28;20052;-76
2021/12/04 11:45:09;;;;;;;59.05;17.80;;;;;;;;;;5095990;28;20044;-76
2021/12/04 11:47:37;;;;;;;59.90;17.20;;;;;;;;;;5092575;28;20540;-76
2021/12/04 11:50:13;;;;;;;51.67;16.20;;;;;;;;;;5101505;28;20397;-77
2021/12/04 11:52:44;;;;;;;60.45;17.60;;;;;;;;;;5104817;28;20044;-77
2021/12/04 11:55:10;;;;;;;59.55;17.70;;;;;;;;;;5109282;28;20449;-76
2021/12/04 11:57:38;;;;;;;52.35;16.02;;;;;;;;;;5108706;28;20047;-76
2021/12/04 12:00:26;;;;;;;43.45;15.10;;;;;;;;;;5091699;28;20054;-76
2021/12/04 12:03:04;;;;;;;49.65;16.08;;;;;;;;;;5091361;28;20054;-76
2021/12/04 12:05:30;;;;;;;48.45;16.27;;;;;;;;;;5109132;28;20066;-76
2021/12/04 12:07:57;;;;;;;42.25;15.35;;;;;;;;;;5108457;28;20036;-76
2021/12/04 12:10:26;;;;;;;45.17;15.77;;;;;;;;;;5105864;28;20036;-76
2021/12/04 12:12:53;;;;;;;44.72;14.57;;;;;;;;;;5097506;28;20042;-76
2021/12/04 12:15:19;;;;;;;45.50;15.15;;;;;;;;;;5108011;28;20060;-76
2021/12/04 12:17:45;;;;;;;47.67;14.85;;;;;;;;;;5091512;28;20075;-77
2021/12/04 12:20:18;;;;;;;45.63;14.73;;;;;;;;;;5109177;28;20055;-76
2021/12/04 12:25:19;;;;;;;42.63;14.38;;;;;;;;;;5108764;28;20072;-76
2021/12/04 12:36:09;;;;;;;47.50;14.80;;;;;;;;;;5108881;28;20058;-77
2021/12/04 12:38:43;;;;;;;42.72;14.13;;;;;;;;;;5108637;28;20392;-77
2021/12/04 12:41:11;;;;;;;44.50;14.45;;;;;;;;;;5107851;28;20085;-77
2021/12/04 12:43:40;;;;;;;45.60;14.75;;;;;;;;;;5108389;28;20411;-77
2021/12/04 12:46:06;;;;;;;41.38;13.18;;;;;;;;;;5108116;28;20043;-77
2021/12/04 12:48:41;;;;;;;47.05;14.57;;;;;;;;;;5091591;28;20129;-77
2021/12/04 12:51:07;;;;;;;47.25;14.82;;;;;;;;;;5105512;28;20036;-81
2021/12/04 12:53:40;;;;;;;52.78;16.00;;;;;;;;;;5080370;28;20518;-82
2021/12/04 12:56:08;;;;;;;50.00;15.13;;;;;;;;;;5090911;28;20055;-82
2021/12/04 12:58:42;;;;;;;60.67;15.93;;;;;;;;;;5100730;28;20651;-82
2021/12/04 13:12:24;;;;;;;54.38;15.77;;;;;;;;;;5093749;28;20054;-81
2021/12/04 13:14:51;;;;;;;61.83;16.65;;;;;;;;;;5125043;27;20047;-81
2021/12/04 13:17:21;;;;;;;58.30;17.05;;;;;;;;;;5105325;28;20510;-82
2021/12/04 13:19:50;;;;;;;50.50;16.38;;;;;;;;;;5098668;28;20047;-81
2021/12/04 13:22:19;;;;;;;52.97;16.08;;;;;;;;;;5091148;28;20035;-81
2021/12/04 13:24:46;;;;;;;50.38;15.95;;;;;;;;;;5107890;28;20047;-81
2021/12/04 13:29:42;;;;;;;49.13;16.42;;;;;;;;;;5108059;28;20123;-81
2021/12/04 13:32:10;;;;;;;50.33;17.85;;;;;;;;;;5107826;28;20093;-82
2021/12/04 13:34:37;;;;;;;48.45;16.48;;;;;;;;;;5092898;28;20047;-81
2021/12/04 13:37:04;;;;;;;56.90;19.83;;;;;;;;;;5111378;28;20063;-82
2021/12/04 13:39:30;;;;;;;70.35;26.02;;;;;;;;;;5111802;28;20042;-81
2021/12/04 13:41:57;;;;;;;60.55;21.92;;;;;;;;;;5094423;28;20122;-81
2021/12/04 13:44:25;;;;;;;61.47;18.45;;;;;;;;;;5111731;28;20052;-81
2021/12/04 13:46:53;;;;;;;63.08;19.98;;;;;;;;;;5110909;28;20050;-82
2021/12/04 13:49:20;;;;;;;82.30;27.67;;;;;;;;;;5092935;28;20495;-81
2021/12/04 13:51:57;;;;;;;105.32;34.17;;;;;;;;;;5099216;28;20039;-82
2021/12/04 13:54:25;;;;;;;83.97;29.05;;;;;;;;;;5110048;28;20054;-81
2021/12/04 13:56:51;;;;;;;130.32;41.25;;;;;;;;;;5081460;28;20046;-81
2021/12/04 13:59:22;;;;;;;92.32;29.95;;;;;;;;;;5094917;28;20043;-82
2021/12/04 14:01:48;;;;;;;87.60;27.83;;;;;;;;;;5097323;28;20131;-82
2021/12/04 14:04:17;;;;;;;68.38;21.58;;;;;;;;;;5128193;27;20044;-82
2021/12/04 14:06:55;;;;;;;55.80;19.95;;;;;;;;;;5111248;28;20122;-82
2021/12/04 14:09:22;;;;;;;77.57;23.38;;;;;;;;;;5111315;28;20035;-76
2021/12/04 14:11:48;;;;;;;104.50;32.85;;;;;;;;;;5110546;28;20078;-76
2021/12/04 14:14:23;;;;;;;78.13;25.77;;;;;;;;;;5111182;28;20440;-77
2021/12/04 14:16:51;;;;;;;69.63;22.63;;;;;;;;;;5110272;28;20097;-77
2021/12/04 14:19:23;;;;;;;75.82;26.63;;;;;;;;;;5110781;28;20114;-77
2021/12/04 14:21:56;;;;;;;68.15;22.13;;;;;;;;;;5093705;28;20047;-82
2021/12/04 14:24:31;;;;;;;58.30;20.35;;;;;;;;;;5111302;28;20537;-81
2021/12/04 14:26:58;;;;;;;73.43;28.05;;;;;;;;;;5096650;28;20445;-81
2021/12/04 14:29:27;;;;;;;60.22;18.02;;;;;;;;;;5110262;28;20039;-81
2021/12/04 14:31:53;;;;;;;60.58;20.83;;;;;;;;;;5110065;28;20093;-81
2021/12/04 14:34:23;;;;;;;59.05;20.50;;;;;;;;;;5112049;28;20033;-81
2021/12/04 14:37:03;;;;;;;62.33;18.85;;;;;;;;;;5093072;28;20237;-81
2021/12/04 14:39:29;;;;;;;60.13;18.17;;;;;;;;;;5111690;28;20058;-77
2021/12/04 14:41:56;;;;;;;62.85;18.55;;;;;;;;;;5127388;27;20031;-81
2021/12/04 14:44:22;;;;;;;64.32;18.88;;;;;;;;;;5093508;28;20066;-81
2021/12/04 14:46:48;;;;;;;74.70;19.73;;;;;;;;;;5093317;28;20028;-81
2021/12/04 14:49:15;;;;;;;65.53;18.35;;;;;;;;;;5110577;28;20042;-81
2021/12/04 14:51:41;;;;;;;70.07;17.85;;;;;;;;;;5110697;28;20495;-81
2021/12/04 14:54:07;;;;;;;67.78;19.02;;;;;;;;;;5110241;28;20043;-81
2021/12/04 14:56:34;;;;;;;75.15;20.02;;;;;;;;;;5109933;28;20032;-81
2021/12/04 14:59:01;;;;;;;86.75;21.88;;;;;;;;;;5109736;28;20047;-77
2021/12/04 15:01:35;;;;;;;80.97;21.40;;;;;;;;;;5106412;28;20058;-77
2021/12/04 15:04:02;;;;;;;76.38;20.38;;;;;;;;;;5100497;28;20142;-77
2021/12/04 15:06:30;;;;;;;74.38;21.13;;;;;;;;;;5110165;28;20039;-77
2021/12/04 15:09:07;;;;;;;79.65;20.75;;;;;;;;;;5110713;28;20039;-77
2021/12/04 15:11:34;;;;;;;74.57;20.00;;;;;;;;;;5109989;28;20176;-81
2021/12/04 15:14:08;;;;;;;70.47;20.38;;;;;;;;;;5092691;28;20073;-77
2021/12/04 15:16:46;;;;;;;82.13;20.52;;;;;;;;;;5092573;28;20052;-81
2021/12/04 15:19:17;;;;;;;78.95;19.80;;;;;;;;;;5109074;28;20044;-81
2021/12/04 15:21:49;;;;;;;88.20;20.80;;;;;;;;;;5109823;28;20057;-82
2021/12/04 15:24:21;;;;;;;80.80;20.83;;;;;;;;;;5109776;28;20066;-81
2021/12/04 15:26:49;;;;;;;72.47;20.30;;;;;;;;;;5110095;28;20050;-81
2021/12/04 15:29:16;;;;;;;83.60;20.45;;;;;;;;;;5109605;28;20046;-81
2021/12/04 15:31:43;;;;;;;84.93;19.95;;;;;;;;;;5109790;28;20114;-81
2021/12/04 15:34:09;;;;;;;83.60;20.50;;;;;;;;;;5091715;28;20043;-81
2021/12/04 15:36:39;;;;;;;92.97;20.80;;;;;;;;;;5109731;28;20089;-82
2021/12/04 15:39:11;;;;;;;79.60;21.20;;;;;;;;;;5092335;28;20058;-82
2021/12/04 15:41:55;;;;;;;90.57;21.65;;;;;;;;;;5109913;28;20043;-81
2021/12/04 15:47:49;;;;;;;87.50;21.10;;;;;;;;;;5093847;28;20402;-82
2021/12/04 15:53:00;;;;;;;87.05;21.77;;;;;;;;;;5109357;28;20075;-77
2021/12/04 15:55:34;;;;;;;58.72;15.63;;;;;;;;;;5092528;28;20058;-77
2021/12/04 15:58:06;;;;;;;82.22;20.42;;;;;;;;;;5108534;28;20047;-76
2021/12/04 16:00:33;;;;;;;75.05;21.20;;;;;;;;;;5092302;28;20509;-77
2021/12/04 16:03:05;;;;;;;91.72;22.60;;;;;;;;;;5108858;28;20044;-77
2021/12/04 16:05:33;;;;;;;72.57;20.48;;;;;;;;;;5109073;28;20052;-77
2021/12/04 16:08:02;;;;;;;88.70;22.65;;;;;;;;;;5108343;28;20035;-76
2021/12/04 16:10:28;;;;;;;72.25;23.13;;;;;;;;;;5109004;28;20036;-83
2021/12/04 16:12:57;;;;;;;81.72;23.30;;;;;;;;;;5108977;28;20042;-82
2021/12/04 16:15:24;;;;;;;71.30;21.35;;;;;;;;;;5092489;28;20494;-83
2021/12/04 16:17:51;;;;;;;69.80;19.17;;;;;;;;;;5110089;28;20039;-84
2021/12/04 16:20:17;;;;;;;76.40;20.08;;;;;;;;;;5076628;28;20369;-84
2021/12/04 16:22:45;;;;;;;59.40;17.50;;;;;;;;;;5093891;28;20126;-84
2021/12/04 16:25:16;;;;;;;70.20;20.25;;;;;;;;;;5110419;28;20120;-84
2021/12/04 16:30:32;;;;;;;72.15;19.05;;;;;;;;;;5110817;28;20145;-84
2021/12/04 16:38:04;;;;;;;65.40;19.33;;;;;;;;;;5111510;28;20051;-84
2021/12/04 16:40:50;;;;;;;58.10;15.60;;;;;;;;;;5094668;28;20039;-84
2021/12/04 16:43:31;;;;;;;52.25;15.48;;;;;;;;;;5110967;28;20039;-84
2021/12/04 16:45:58;;;;;;;45.90;14.63;;;;;;;;;;5111927;28;20097;-85
2021/12/04 16:48:28;;;;;;;53.88;17.75;;;;;;;;;;5112147;28;20046;-85
2021/12/04 16:58:58;;;;;;;49.10;15.10;;;;;;;;;;5111923;28;20130;-85
2021/12/04 17:01:25;;;;;;;42.00;13.70;;;;;;;;;;5111897;28;20075;-85
2021/12/04 17:03:52;;;;;;;43.17;14.20;;;;;;;;;;5111764;28;20035;-85
2021/12/04 17:06:19;;;;;;;44.60;14.23;;;;;;;;;;5111288;28;20100;-85
2021/12/04 17:08:46;;;;;;;41.45;13.32;;;;;;;;;;5111696;28;20043;-85
2021/12/04 17:11:12;;;;;;;42.25;13.80;;;;;;;;;;5115099;28;20044;-85
2021/12/04 17:13:38;;;;;;;42.75;13.20;;;;;;;;;;5099197;28;20364;-85
2021/12/04 17:16:05;;;;;;;40.28;13.23;;;;;;;;;;5115815;28;20054;-85
2021/12/04 17:18:35;;;;;;;42.90;13.20;;;;;;;;;;5099289;28;20044;-85
2021/12/04 17:21:01;;;;;;;38.35;12.77;;;;;;;;;;5116095;28;20047;-85
2021/12/04 17:23:28;;;;;;;42.53;12.77;;;;;;;;;;5115548;28;20050;-85
2021/12/04 17:25:55;;;;;;;35.67;11.63;;;;;;;;;;5098629;28;20452;-85
2021/12/04 17:28:24;;;;;;;42.97;12.30;;;;;;;;;;5115922;28;20055;-85
2021/12/04 17:30:50;;;;;;;43.17;12.32;;;;;;;;;;5115860;28;20509;-85
2021/12/04 17:33:16;;;;;;;43.80;13.07;;;;;;;;;;5115623;28;20040;-84
2021/12/04 17:35:43;;;;;;;40.13;12.13;;;;;;;;;;5098995;28;20086;-85
2021/12/04 17:38:09;;;;;;;44.50;12.77;;;;;;;;;;5115678;28;20043;-85
2021/12/04 17:40:36;;;;;;;42.33;12.55;;;;;;;;;;5098873;28;20036;-85
2021/12/04 17:43:04;;;;;;;49.20;12.95;;;;;;;;;;5079357;28;20073;-85
2021/12/04 17:45:30;;;;;;;45.33;12.40;;;;;;;;;;5079385;28;20044;-85
2021/12/04 17:47:59;;;;;;;41.80;11.52;;;;;;;;;;5096520;28;20478;-84
2021/12/04 17:50:27;;;;;;;42.05;12.63;;;;;;;;;;5102128;28;20050;-78
2021/12/04 17:52:58;;;;;;;44.95;12.48;;;;;;;;;;5111426;28;20066;-78
2021/12/04 17:55:24;;;;;;;49.70;13.10;;;;;;;;;;5095053;28;20043;-78
2021/12/04 17:57:51;;;;;;;50.35;12.77;;;;;;;;;;5095288;28;20043;-78
2021/12/04 18:00:20;;;;;;;43.00;11.63;;;;;;;;;;5112756;28;20050;-78
2021/12/04 18:02:49;;;;;;;47.55;12.52;;;;;;;;;;5095514;28;20208;-78